createdAt,value
2018-12-08T00:00:03.079Z,10.50
2018-12-08T00:02:31.012Z,10.50
2018-12-08T00:04:58.953Z,10.40
2018-12-08T00:07:27.004Z,10.40
2018-12-08T00:09:55.036Z,10.40
2018-12-08T00:12:22.978Z,10.40
2018-12-08T00:14:50.933Z,10.40
2018-12-08T00:17:18.904Z,10.40
2018-12-08T00:19:46.885Z,10.30
2018-12-08T00:22:14.830Z,10.30
2018-12-08T00:24:42.788Z,10.30
2018-12-08T00:27:10.724Z,10.20
2018-12-08T00:29:38.661Z,10.10
2018-12-08T00:32:06.643Z,9.90
2018-12-08T00:34:34.599Z,9.90
2018-12-08T00:37:02.557Z,9.80
2018-12-08T00:39:30.496Z,9.80
2018-12-08T00:41:58.653Z,9.70
2018-12-08T00:44:26.724Z,9.70
2018-12-08T00:46:54.669Z,9.60
2018-12-08T00:49:22.619Z,9.50
2018-12-08T00:51:50.556Z,9.50
2018-12-08T00:54:18.510Z,9.50
2018-12-08T00:56:46.490Z,9.40
2018-12-08T00:59:14.444Z,9.50
2018-12-08T01:01:42.394Z,9.50
2018-12-08T01:04:10.328Z,9.60
2018-12-08T01:06:38.264Z,9.70
2018-12-08T01:09:06.708Z,9.70
2018-12-08T01:11:34.649Z,9.80
2018-12-08T01:14:02.634Z,9.80
2018-12-08T01:16:30.635Z,9.80
2018-12-08T01:18:58.649Z,9.70
2018-12-08T01:21:26.851Z,9.80
2018-12-08T01:23:54.814Z,9.80
2018-12-08T01:26:22.736Z,9.80
2018-12-08T01:28:50.704Z,9.80
2018-12-08T01:31:18.754Z,9.80
2018-12-08T01:33:46.707Z,9.80
2018-12-08T01:36:14.672Z,9.70
2018-12-08T01:38:42.607Z,9.60
2018-12-08T01:41:10.625Z,9.50
2018-12-08T01:43:38.571Z,9.40
2018-12-08T01:46:06.509Z,9.40
2018-12-08T01:48:34.475Z,9.40
2018-12-08T01:51:02.464Z,9.50
2018-12-08T01:53:30.448Z,9.50
2018-12-08T01:55:58.472Z,9.50
2018-12-08T01:58:26.500Z,9.50
2018-12-08T02:00:55.341Z,9.50
2018-12-08T02:03:23.353Z,9.50
2018-12-08T02:05:51.337Z,9.60
2018-12-08T02:08:19.362Z,9.50
2018-12-08T02:10:47.371Z,9.50
2018-12-08T02:13:15.368Z,9.60
2018-12-08T02:15:43.384Z,9.60
2018-12-08T02:18:11.421Z,9.70
2018-12-08T02:20:39.419Z,9.70
2018-12-08T02:23:07.419Z,9.70
2018-12-08T02:25:35.421Z,9.60
2018-12-08T02:28:03.704Z,9.50
2018-12-08T02:30:31.732Z,9.40
2018-12-08T02:32:59.727Z,9.20
2018-12-08T02:35:27.744Z,9.10
2018-12-08T02:37:55.832Z,9.10
2018-12-08T02:40:23.835Z,9.00
2018-12-08T02:42:51.845Z,9.00
2018-12-08T02:45:19.804Z,8.90
2018-12-08T02:47:47.787Z,9.00
2018-12-08T02:50:15.793Z,8.90
2018-12-08T02:52:43.795Z,8.90
2018-12-08T02:55:11.812Z,8.90
2018-12-08T02:57:39.824Z,8.90
2018-12-08T03:00:07.843Z,8.80
2018-12-08T03:02:35.952Z,8.80
2018-12-08T03:05:04.208Z,8.80
2018-12-08T03:07:32.199Z,8.70
2018-12-08T03:10:00.293Z,8.60
2018-12-08T03:12:28.361Z,8.60
2018-12-08T03:14:56.367Z,8.50
2018-12-08T03:17:24.336Z,8.50
2018-12-08T03:19:52.277Z,8.50
2018-12-08T03:22:20.244Z,8.40
2018-12-08T03:24:49.031Z,8.40
2018-12-08T03:27:16.964Z,8.40
2018-12-08T03:29:44.894Z,8.40
2018-12-08T03:32:12.838Z,8.30
2018-12-08T03:34:40.775Z,8.30
2018-12-08T03:37:08.724Z,8.20
2018-12-08T03:39:36.713Z,8.20
2018-12-08T03:42:04.654Z,8.20
2018-12-08T03:44:32.632Z,8.20
2018-12-08T03:47:00.598Z,8.20
2018-12-08T03:49:28.568Z,8.20
2018-12-08T03:51:56.524Z,8.20
2018-12-08T03:54:24.573Z,8.20
2018-12-08T03:56:52.516Z,8.20
2018-12-08T03:59:20.443Z,8.20
2018-12-08T04:01:48.396Z,8.30
2018-12-08T04:04:16.428Z,8.30
2018-12-08T04:06:44.472Z,8.30
2018-12-08T04:09:12.501Z,8.30
2018-12-08T04:11:40.579Z,8.20
2018-12-08T04:14:08.745Z,8.20
2018-12-08T04:16:36.821Z,8.10
2018-12-08T04:19:04.817Z,8.10
2018-12-08T04:21:32.803Z,8.10
2018-12-08T04:24:00.840Z,8.00
2018-12-08T04:26:28.867Z,8.00
2018-12-08T04:28:56.893Z,8.00
2018-12-08T04:31:24.831Z,8.00
2018-12-08T04:33:52.785Z,8.20
2018-12-08T04:36:20.729Z,8.30
2018-12-08T04:38:48.673Z,8.40
2018-12-08T04:41:16.621Z,8.40
2018-12-08T04:43:44.633Z,8.30
2018-12-08T04:46:12.757Z,8.40
2018-12-08T04:48:40.715Z,8.50
2018-12-08T04:51:08.658Z,8.50
2018-12-08T04:53:36.600Z,8.50
2018-12-08T04:56:04.626Z,8.50
2018-12-08T04:58:32.644Z,8.40
2018-12-08T05:01:00.596Z,8.40
2018-12-08T05:03:28.557Z,8.30
2018-12-08T05:05:56.494Z,8.20
2018-12-08T05:08:24.488Z,8.20
2018-12-08T05:10:52.472Z,8.10
2018-12-08T05:13:20.406Z,8.10
2018-12-08T05:15:48.356Z,8.30
2018-12-08T05:18:16.387Z,8.40
2018-12-08T05:20:44.468Z,8.50
2018-12-08T05:23:12.568Z,8.70
2018-12-08T05:25:40.584Z,8.80
2018-12-08T05:28:08.576Z,8.90
2018-12-08T05:30:36.588Z,9.00
2018-12-08T05:33:04.584Z,9.10
2018-12-08T05:35:32.535Z,9.20
2018-12-08T05:38:00.485Z,9.30
2018-12-08T05:40:28.464Z,9.30
2018-12-08T05:42:56.417Z,9.30
2018-12-08T05:45:24.368Z,9.30
2018-12-08T05:47:52.306Z,9.30
2018-12-08T05:50:20.268Z,9.30
2018-12-08T05:52:48.216Z,9.30
2018-12-08T05:55:16.249Z,9.20
2018-12-08T05:57:44.388Z,9.10
2018-12-08T06:00:12.348Z,8.90
2018-12-08T06:02:40.285Z,8.80
2018-12-08T06:05:08.456Z,8.70
2018-12-08T06:07:36.390Z,8.50
2018-12-08T06:10:04.944Z,8.40
2018-12-08T06:12:32.900Z,8.30
2018-12-08T06:15:00.812Z,8.30
2018-12-08T06:17:28.848Z,8.30
2018-12-08T06:19:56.799Z,8.30
2018-12-08T06:22:24.808Z,8.20
2018-12-08T06:24:52.809Z,8.20
2018-12-08T06:27:29.619Z,8.10
2018-12-08T06:29:57.566Z,8.10
2018-12-08T06:32:25.513Z,8.10
2018-12-08T06:34:53.458Z,8.10
2018-12-08T06:37:21.399Z,8.00
2018-12-08T06:39:49.376Z,8.10
2018-12-08T06:42:17.548Z,8.10
2018-12-08T06:44:45.492Z,8.20
2018-12-08T06:47:13.431Z,8.30
2018-12-08T06:49:41.380Z,8.30
2018-12-08T06:52:09.330Z,8.30
2018-12-08T06:54:37.444Z,8.20
2018-12-08T06:57:05.372Z,8.20
2018-12-08T06:59:33.292Z,8.10
2018-12-08T07:02:01.320Z,8.20
2018-12-08T07:04:29.268Z,8.10
2018-12-08T07:06:57.190Z,8.10
2018-12-08T07:09:25.141Z,8.10
2018-12-08T07:11:53.210Z,8.20
2018-12-08T07:14:21.208Z,8.20
2018-12-08T07:16:49.339Z,8.10
2018-12-08T07:19:17.295Z,8.00
2018-12-08T07:21:45.316Z,8.00
2018-12-08T07:24:13.376Z,7.90
2018-12-08T07:26:41.295Z,7.90
2018-12-08T07:29:09.246Z,8.00
2018-12-08T07:31:37.215Z,7.90
2018-12-08T07:34:05.164Z,7.90
2018-12-08T07:36:33.108Z,8.00
2018-12-08T07:39:01.044Z,8.00
2018-12-08T07:41:29.114Z,8.00
2018-12-08T07:43:57.049Z,8.20
2018-12-08T07:46:25.014Z,8.30
2018-12-08T07:48:53.387Z,8.50
2018-12-08T07:51:21.380Z,8.70
2018-12-08T07:53:49.292Z,8.80
2018-12-08T07:56:17.248Z,8.90
2018-12-08T07:58:45.183Z,9.10
2018-12-08T08:01:13.115Z,9.20
2018-12-08T08:03:41.069Z,9.30
2018-12-08T08:06:08.988Z,9.40
2018-12-08T08:08:36.981Z,9.40
2018-12-08T08:11:04.923Z,9.50
2018-12-08T08:13:32.867Z,9.60
2018-12-08T08:16:02.271Z,9.80
2018-12-08T08:18:30.224Z,10.00
2018-12-08T08:20:58.182Z,10.10
2018-12-08T08:23:26.128Z,10.10
2018-12-08T08:25:54.055Z,10.10
2018-12-08T08:28:22.022Z,10.10
2018-12-08T08:30:49.960Z,10.10
2018-12-08T08:33:17.891Z,10.10
2018-12-08T08:35:45.836Z,10.10
2018-12-08T08:38:13.792Z,10.00
2018-12-08T08:40:41.759Z,10.00
2018-12-08T08:43:09.702Z,10.10
2018-12-08T08:45:37.798Z,10.10
2018-12-08T08:48:05.760Z,10.30
2018-12-08T08:50:33.756Z,10.40
2018-12-08T08:53:04.797Z,10.40
2018-12-08T08:55:32.857Z,10.50
2018-12-08T08:58:00.801Z,10.40
2018-12-08T09:00:28.787Z,10.40
2018-12-08T09:02:56.776Z,10.20
2018-12-08T09:05:24.712Z,10.10
2018-12-08T09:07:52.657Z,10.10
2018-12-08T09:10:20.695Z,10.10
2018-12-08T09:12:48.643Z,10.10
2018-12-08T09:15:16.592Z,10.10
2018-12-08T09:17:44.576Z,10.10
2018-12-08T09:20:12.507Z,10.20
2018-12-08T09:22:40.746Z,10.30
2018-12-08T09:25:09.547Z,10.30
2018-12-08T09:27:37.491Z,10.40
2018-12-08T09:30:07.505Z,10.40
2018-12-08T09:32:35.499Z,10.50
2018-12-08T09:35:03.464Z,10.50
2018-12-08T09:37:31.404Z,10.50
2018-12-08T09:39:59.357Z,10.50
2018-12-08T09:42:27.300Z,10.50
2018-12-08T09:44:55.332Z,10.50
2018-12-08T09:47:23.248Z,10.60
2018-12-08T09:49:51.275Z,10.70
2018-12-08T09:52:19.224Z,10.70
2018-12-08T09:54:47.575Z,10.80
2018-12-08T09:57:15.620Z,11.00
2018-12-08T09:59:43.589Z,11.00
2018-12-08T10:02:11.547Z,11.20
2018-12-08T10:04:39.508Z,11.20
2018-12-08T10:07:07.459Z,11.40
2018-12-08T10:09:35.460Z,11.60
2018-12-08T10:12:03.412Z,11.90
2018-12-08T10:14:31.342Z,12.20
2018-12-08T10:16:59.284Z,12.40
2018-12-08T10:19:27.222Z,12.60
2018-12-08T10:21:55.140Z,12.70
2018-12-08T10:24:23.105Z,12.70
2018-12-08T10:26:51.060Z,12.80
2018-12-08T10:29:19.044Z,12.90
2018-12-08T10:31:47.333Z,13.20
2018-12-08T10:34:15.326Z,13.40
2018-12-08T10:36:43.286Z,13.70
2018-12-08T10:39:11.253Z,13.70
2018-12-08T10:41:39.196Z,13.80
2018-12-08T10:44:07.159Z,13.90
2018-12-08T10:46:35.147Z,13.90
2018-12-08T10:49:03.175Z,13.80
2018-12-08T10:51:31.276Z,13.60
2018-12-08T10:53:59.212Z,13.50
2018-12-08T10:56:27.151Z,13.40
2018-12-08T10:58:55.160Z,13.30
2018-12-08T11:01:26.624Z,13.50
2018-12-08T11:03:54.641Z,13.60
2018-12-08T11:06:22.570Z,13.90
2018-12-08T11:08:50.525Z,14.00
2018-12-08T11:11:18.480Z,14.10
2018-12-08T11:13:46.428Z,14.00
2018-12-08T11:16:14.365Z,13.90
2018-12-08T11:18:42.344Z,13.80
2018-12-08T11:21:10.358Z,13.60
2018-12-08T11:23:38.521Z,13.50
2018-12-08T11:26:06.600Z,13.60
2018-12-08T11:28:34.564Z,13.50
2018-12-08T11:31:02.516Z,13.50
2018-12-08T11:33:30.451Z,13.60
2018-12-08T11:35:58.576Z,13.80
2018-12-08T11:38:26.504Z,14.00
2018-12-08T11:40:54.437Z,14.20
2018-12-08T11:43:23.507Z,14.20
2018-12-08T11:45:51.645Z,14.10
2018-12-08T11:48:19.636Z,13.90
2018-12-08T11:50:47.591Z,13.80
2018-12-08T11:53:15.529Z,13.80
2018-12-08T11:55:43.478Z,13.80
2018-12-08T11:58:11.429Z,13.90
2018-12-08T12:00:39.380Z,13.90
2018-12-08T12:03:07.312Z,14.00
2018-12-08T12:05:35.264Z,14.10
2018-12-08T12:08:03.249Z,14.10
2018-12-08T12:10:31.309Z,14.00
2018-12-08T12:12:59.358Z,14.00
2018-12-08T12:15:27.959Z,13.90
2018-12-08T12:18:02.592Z,13.60
2018-12-08T12:20:30.584Z,13.60
2018-12-08T12:22:58.576Z,13.40
2018-12-08T12:25:26.915Z,13.30
2018-12-08T12:27:55.101Z,13.30
2018-12-08T12:30:23.228Z,13.40
2018-12-08T12:32:51.189Z,13.60
2018-12-08T12:35:19.141Z,13.80
2018-12-08T12:37:47.101Z,14.00
2018-12-08T12:40:15.107Z,13.90
2018-12-08T12:42:43.096Z,14.00
2018-12-08T12:45:11.035Z,14.00
2018-12-08T12:47:38.965Z,13.90
2018-12-08T12:50:07.069Z,13.80
2018-12-08T12:52:35.061Z,13.80
2018-12-08T12:55:03.079Z,13.80
2018-12-08T13:00:29.692Z,13.80
2018-12-08T13:02:57.633Z,13.80
2018-12-08T13:05:25.594Z,13.90
2018-12-08T13:07:53.539Z,14.00
2018-12-08T13:10:21.532Z,14.00
2018-12-08T13:12:49.481Z,14.00
2018-12-08T13:15:17.415Z,13.90
2018-12-08T13:17:45.433Z,13.90
2018-12-08T13:20:13.398Z,14.00
2018-12-08T13:22:41.341Z,14.00
2018-12-08T13:25:22.851Z,14.00
2018-12-08T13:27:50.819Z,14.00
2018-12-08T13:30:18.790Z,13.90
2018-12-08T13:32:46.823Z,13.80
2018-12-08T13:35:52.624Z,13.70
2018-12-08T13:38:20.594Z,13.70
2018-12-08T13:40:48.545Z,13.70
2018-12-08T13:43:16.678Z,13.60
2018-12-08T13:45:45.480Z,13.60
2018-12-08T13:48:15.492Z,13.60
2018-12-08T13:50:43.700Z,13.70
2018-12-08T13:53:12.296Z,13.70
2018-12-08T13:55:40.271Z,13.70
2018-12-08T13:58:08.790Z,13.60
2018-12-08T14:00:38.098Z,13.50
2018-12-08T14:03:06.230Z,13.50
2018-12-08T14:05:36.012Z,13.50
2018-12-08T14:08:04.009Z,13.60
2018-12-08T14:10:32.052Z,13.60
2018-12-08T14:13:00.041Z,13.60
2018-12-08T14:15:28.035Z,13.60
2018-12-08T14:17:56.398Z,13.70
2018-12-08T14:20:28.163Z,13.60
2018-12-08T14:22:57.490Z,13.60
2018-12-08T14:25:26.981Z,13.50
2018-12-08T14:27:54.920Z,13.40
2018-12-08T14:30:23.631Z,13.30
2018-12-08T14:32:53.908Z,13.20
2018-12-08T14:35:23.034Z,13.10
2018-12-08T14:37:52.794Z,13.10
2018-12-08T14:40:21.467Z,13.00
2018-12-08T14:42:49.859Z,13.00
2018-12-08T14:45:19.033Z,13.00
2018-12-08T14:47:47.570Z,12.90
2018-12-08T14:50:16.454Z,12.90
2018-12-08T14:52:44.972Z,12.90
2018-12-08T14:55:14.193Z,12.90
2018-12-08T14:57:42.714Z,12.90
2018-12-08T15:00:12.376Z,12.80
2018-12-08T15:02:40.622Z,12.90
2018-12-08T15:05:09.971Z,12.90
2018-12-08T15:07:38.325Z,12.90
2018-12-08T15:10:10.805Z,12.90
2018-12-08T15:12:38.967Z,12.90
2018-12-08T15:15:09.202Z,12.90
2018-12-08T15:17:37.851Z,12.80
2018-12-08T15:20:08.615Z,12.70
2018-12-08T15:22:37.194Z,12.70
2018-12-08T15:25:07.364Z,12.70
2018-12-08T15:27:35.768Z,12.80
2018-12-08T15:30:04.668Z,12.80
2018-12-08T15:32:34.122Z,12.90
2018-12-08T15:35:02.952Z,13.00
2018-12-08T15:37:32.064Z,13.10
2018-12-08T15:40:02.712Z,13.20
2018-12-08T15:42:31.444Z,13.20
2018-12-08T15:45:00.302Z,13.10
2018-12-08T15:47:29.366Z,13.00
2018-12-08T15:49:58.437Z,13.00
2018-12-08T15:52:27.472Z,12.90
2018-12-08T15:54:55.936Z,12.90
2018-12-08T15:57:24.785Z,12.70
2018-12-08T15:59:53.909Z,12.60
2018-12-08T16:02:24.155Z,12.50
2018-12-08T16:04:52.712Z,12.50
2018-12-08T16:07:21.658Z,12.40
2018-12-08T16:09:51.204Z,12.40
2018-12-08T16:12:20.016Z,12.30
2018-12-08T16:14:48.491Z,12.30
2018-12-08T16:17:17.025Z,12.30
2018-12-08T16:19:46.203Z,12.30
2018-12-08T16:22:15.837Z,12.30
2018-12-08T16:24:44.931Z,12.30
2018-12-08T16:27:13.314Z,12.20
2018-12-08T16:29:41.832Z,12.20
2018-12-08T16:32:10.516Z,12.10
2018-12-08T16:34:38.682Z,12.10
2018-12-08T16:37:07.487Z,12.00
2018-12-08T16:39:37.285Z,12.00
2018-12-08T16:42:05.414Z,12.00
2018-12-08T16:44:33.530Z,12.00
2018-12-08T16:47:01.569Z,12.00
2018-12-08T16:49:29.642Z,12.00
2018-12-08T16:51:57.650Z,12.00
2018-12-08T16:54:25.666Z,12.10
2018-12-08T16:56:53.652Z,12.10
2018-12-08T16:59:21.666Z,12.00
2018-12-08T17:01:52.271Z,12.00
2018-12-08T17:04:20.956Z,12.00
2018-12-08T17:06:49.152Z,12.00
2018-12-08T17:09:17.471Z,12.00
2018-12-08T17:11:45.454Z,12.00
2018-12-08T17:14:13.409Z,12.10
2018-12-08T17:16:41.357Z,12.00
2018-12-08T17:19:09.326Z,12.10
2018-12-08T17:21:38.148Z,12.00
2018-12-08T17:24:06.828Z,12.10
2018-12-08T17:26:34.801Z,12.10
2018-12-08T17:29:06.083Z,12.00
2018-12-08T17:31:34.337Z,12.10
2018-12-08T17:34:05.864Z,12.10
2018-12-08T17:36:33.811Z,12.00
2018-12-08T17:39:01.820Z,12.00
2018-12-08T17:41:29.781Z,12.00
2018-12-08T17:43:57.725Z,12.00
2018-12-08T17:46:25.732Z,12.00
2018-12-08T17:48:53.684Z,12.00
2018-12-08T17:51:21.626Z,12.00
2018-12-08T17:53:50.627Z,12.00
2018-12-08T17:56:18.721Z,12.00
2018-12-08T18:01:46.848Z,12.00
2018-12-08T18:04:15.403Z,12.00
2018-12-08T18:06:43.369Z,12.00
2018-12-08T18:09:11.328Z,12.00
2018-12-08T18:11:39.272Z,12.00
2018-12-08T18:14:07.271Z,12.00
2018-12-08T18:16:35.223Z,12.00
2018-12-08T18:19:03.211Z,12.00
2018-12-08T18:21:31.480Z,12.00
2018-12-08T18:23:59.524Z,12.00
2018-12-08T18:26:27.460Z,12.00
2018-12-08T18:28:55.381Z,12.00
2018-12-08T18:31:23.368Z,12.00
2018-12-08T18:33:51.411Z,12.00
2018-12-08T18:36:19.409Z,12.00
2018-12-08T18:38:47.363Z,12.00
2018-12-08T18:41:15.327Z,12.00
2018-12-08T18:43:43.300Z,12.00
2018-12-08T18:46:11.276Z,12.00
2018-12-08T18:48:39.280Z,12.00
2018-12-08T18:51:07.287Z,12.00
2018-12-08T18:53:35.312Z,12.00
2018-12-08T18:56:03.289Z,11.90
2018-12-08T18:58:31.497Z,12.00
2018-12-08T19:00:59.438Z,12.00
2018-12-08T19:03:27.369Z,12.00
2018-12-08T19:05:55.368Z,12.00
2018-12-08T19:08:23.436Z,12.00
2018-12-08T19:10:51.413Z,12.00
2018-12-08T19:13:19.371Z,12.00
2018-12-08T19:15:47.349Z,12.00
2018-12-08T19:18:15.305Z,12.00
2018-12-08T19:20:43.240Z,12.00
2018-12-08T19:23:12.101Z,12.00
2018-12-08T19:25:40.052Z,12.00
2018-12-08T19:28:08.044Z,12.00
2018-12-08T19:30:36.103Z,12.00
2018-12-08T19:33:04.043Z,12.00
2018-12-08T19:35:32.021Z,12.00
2018-12-08T19:37:59.991Z,12.00
2018-12-08T19:40:27.928Z,12.00
2018-12-08T19:42:56.006Z,12.00
2018-12-08T19:45:23.952Z,12.00
2018-12-08T19:47:51.882Z,12.00
2018-12-08T19:50:19.834Z,12.00
2018-12-08T19:52:47.768Z,12.00
2018-12-08T19:55:15.705Z,12.00
2018-12-08T19:57:43.638Z,12.00
2018-12-08T20:00:12.024Z,12.00
2018-12-08T20:02:39.998Z,12.00
2018-12-08T20:05:07.973Z,12.00
2018-12-08T20:07:36.009Z,12.00
2018-12-08T20:10:04.611Z,12.00
2018-12-08T20:12:32.581Z,12.00
2018-12-08T20:15:00.542Z,12.00
2018-12-08T20:17:28.752Z,12.00
2018-12-08T20:19:56.761Z,12.00
2018-12-08T20:22:24.703Z,12.00
2018-12-08T20:24:52.647Z,12.00
2018-12-08T20:27:20.684Z,12.00
2018-12-08T20:29:48.636Z,12.00
2018-12-08T20:32:16.588Z,12.00
2018-12-08T20:34:44.553Z,12.00
2018-12-08T20:37:12.474Z,12.00
2018-12-08T20:39:40.451Z,11.90
2018-12-08T20:42:08.499Z,11.90
2018-12-08T20:44:36.423Z,11.90
2018-12-08T20:47:04.460Z,11.80
2018-12-08T20:49:32.424Z,11.80
2018-12-08T20:52:00.397Z,11.80
2018-12-08T20:54:28.400Z,11.80
2018-12-08T20:56:56.357Z,11.80
2018-12-08T20:59:24.300Z,11.90
2018-12-08T21:01:52.346Z,11.80
2018-12-08T21:04:20.272Z,11.90
2018-12-08T21:06:48.221Z,11.80
2018-12-08T21:09:16.185Z,11.80
2018-12-08T21:11:44.222Z,11.80
2018-12-08T21:14:12.190Z,11.80
2018-12-08T21:16:40.132Z,11.70
2018-12-08T21:19:08.083Z,11.60
2018-12-08T21:21:36.040Z,11.50
2018-12-08T21:24:04.040Z,11.50
2018-12-08T21:26:32.379Z,11.50
2018-12-08T21:29:00.366Z,11.50
2018-12-08T21:31:28.286Z,11.50
2018-12-08T21:33:56.243Z,11.60
2018-12-08T21:36:24.243Z,11.60
2018-12-08T21:38:52.228Z,11.70
2018-12-08T21:41:20.237Z,11.70
2018-12-08T21:43:48.190Z,11.70
2018-12-08T21:46:16.185Z,11.80
2018-12-08T21:48:44.129Z,11.80
2018-12-08T21:51:13.378Z,11.80
2018-12-08T21:53:41.369Z,11.80
2018-12-08T21:56:09.634Z,11.80
2018-12-08T21:58:37.588Z,11.80
2018-12-08T22:01:05.501Z,11.80
2018-12-08T22:03:33.536Z,11.80
2018-12-08T22:06:01.642Z,11.80
2018-12-08T22:08:29.676Z,11.80
2018-12-08T22:10:57.692Z,11.70
2018-12-08T22:13:25.628Z,11.70
2018-12-08T22:15:53.724Z,11.70
2018-12-08T22:18:21.763Z,11.70
2018-12-08T22:20:49.701Z,11.70
2018-12-08T22:23:17.752Z,11.70
2018-12-08T22:25:45.665Z,11.60
2018-12-08T22:28:13.596Z,11.60
2018-12-08T22:30:41.507Z,11.70
2018-12-08T22:33:09.428Z,11.60
2018-12-08T22:35:37.527Z,11.60
2018-12-08T22:38:05.546Z,11.60
2018-12-08T22:40:33.507Z,11.60
2018-12-08T22:43:01.478Z,11.60
2018-12-08T22:45:29.388Z,11.60
2018-12-08T22:47:57.312Z,11.60
2018-12-08T22:50:25.228Z,11.60
2018-12-08T22:52:53.171Z,11.60
2018-12-08T22:55:21.089Z,11.70
2018-12-08T22:57:49.032Z,11.70
2018-12-08T23:00:27.872Z,11.70
2018-12-08T23:02:55.821Z,11.70
2018-12-08T23:05:23.748Z,11.70
2018-12-08T23:07:51.688Z,11.70
2018-12-08T23:10:19.615Z,11.80
2018-12-08T23:12:47.658Z,11.80
2018-12-08T23:15:15.596Z,11.80
2018-12-08T23:17:43.532Z,11.80
2018-12-08T23:20:11.508Z,11.80
2018-12-08T23:22:39.559Z,11.80
2018-12-08T23:25:07.721Z,11.70
2018-12-08T23:27:35.648Z,11.70
2018-12-08T23:30:03.671Z,11.70
2018-12-08T23:32:31.601Z,11.70
2018-12-08T23:34:59.537Z,11.70
2018-12-08T23:37:27.480Z,11.70
2018-12-08T23:39:55.457Z,11.70
2018-12-08T23:42:23.430Z,11.70
2018-12-08T23:44:51.505Z,11.70
2018-12-08T23:47:19.440Z,11.80
2018-12-08T23:49:48.185Z,11.80
2018-12-08T23:52:16.115Z,11.80
2018-12-08T23:54:44.069Z,11.90
2018-12-08T23:57:12.136Z,11.90
2018-12-08T23:59:40.228Z,11.90
